Time;durP1;ratioP1;P1;durP2;ratioP2;P2;SDS_P1;SDS_P2;PMS_P1;PMS_P2;Temp;Humidity;BMP_temperature;BMP_pressure;BME280_temperature;BME280_humidity;BME280_pressure;Samples;Min_cycle;Max_cycle;Signal;HPM_P1;HPM_P2
2021/03/08 00:01:16;;;;;;;15.17;11.47;;;;;;;-3.57;81.69;98309.63;4994847;28;20212;-69
2021/03/08 00:03:44;;;;;;;11.67;10.63;;;;;;;-3.52;80.82;98307.66;4990552;28;20201;-68
2021/03/08 00:06:11;;;;;;;12.83;11.63;;;;;;;-3.68;81.78;98306.63;4988444;28;20228;-69
2021/03/08 00:08:38;;;;;;;12.60;11.33;;;;;;;-3.74;82.37;98314.69;4990747;28;20243;-69
2021/03/08 00:11:05;;;;;;;13.03;10.77;;;;;;;-3.55;81.71;98309.53;4988618;28;20499;-69
2021/03/08 00:13:32;;;;;;;12.13;10.93;;;;;;;-3.79;82.38;98315.72;4988664;28;20221;-69
2021/03/08 00:15:59;;;;;;;12.27;11.17;;;;;;;-3.94;82.75;98313.81;4991857;28;20598;-67
2021/03/08 00:18:27;;;;;;;14.33;11.43;;;;;;;-3.90;83.82;98319.66;4988224;28;20224;-67
2021/03/08 00:20:55;;;;;;;13.00;11.77;;;;;;;-3.74;83.23;98322.44;4991542;28;20724;-69
2021/03/08 00:23:23;;;;;;;12.10;10.90;;;;;;;-3.55;82.18;98327.69;4992389;28;20221;-70
2021/03/08 00:25:50;;;;;;;12.40;11.10;;;;;;;-3.65;82.46;98335.84;4991506;28;20209;-69
2021/03/08 00:28:17;;;;;;;12.13;11.03;;;;;;;-3.70;82.71;98329.19;4992880;28;20261;-70
2021/03/08 00:30:44;;;;;;;12.50;11.27;;;;;;;-3.46;81.81;98323.84;4985313;28;20217;-70
2021/03/08 00:33:11;;;;;;;13.80;12.40;;;;;;;-3.51;81.58;98322.31;4990418;28;20233;-69
2021/03/08 00:35:38;;;;;;;13.37;11.97;;;;;;;-3.63;82.53;98321.09;4987403;28;20209;-69
2021/03/08 00:38:06;;;;;;;11.50;10.50;;;;;;;-3.74;82.08;98310.34;4987839;28;20233;-70
2021/03/08 00:40:34;;;;;;;12.70;11.30;;;;;;;-3.92;83.33;98317.16;4983292;28;20216;-70
2021/03/08 00:43:01;;;;;;;13.03;11.83;;;;;;;-4.10;83.87;98319.59;4990213;28;20205;-68
2021/03/08 00:45:28;;;;;;;12.93;11.67;;;;;;;-4.28;84.27;98318.63;4989311;28;21369;-69
2021/03/08 00:47:55;;;;;;;13.47;11.03;;;;;;;-4.41;85.80;98313.09;4985367;28;20225;-67
2021/03/08 00:50:24;;;;;;;11.70;10.60;;;;;;;-4.46;86.62;98307.25;4988095;28;20213;-69
2021/03/08 00:52:52;;;;;;;12.80;11.10;;;;;;;-4.52;87.20;98307.53;4983719;28;20606;-69
2021/03/08 00:55:20;;;;;;;12.10;10.93;;;;;;;-4.50;87.04;98313.47;4988495;28;20424;-69
2021/03/08 00:57:47;;;;;;;12.93;11.63;;;;;;;-3.93;84.67;98318.06;4986780;28;20230;-70
2021/03/08 01:00:16;;;;;;;11.20;10.30;;;;;;;-3.75;84.21;98318.19;4985072;28;20684;-69
2021/03/08 01:02:45;;;;;;;12.57;10.80;;;;;;;-3.80;83.97;98311.44;4987617;28;20198;-68
2021/03/08 01:05:14;;;;;;;16.00;11.00;;;;;;;-3.86;84.60;98316.91;4989037;28;20201;-69
2021/03/08 01:07:41;;;;;;;11.73;10.50;;;;;;;-3.89;84.57;98318.75;4988000;28;20364;-68
2021/03/08 01:10:10;;;;;;;12.27;11.07;;;;;;;-3.82;84.56;98317.59;4990454;28;20230;-69
2021/03/08 01:12:38;;;;;;;11.63;10.43;;;;;;;-3.84;84.71;98317.66;4989710;28;20209;-69
2021/03/08 01:15:06;;;;;;;11.97;10.87;;;;;;;-3.80;84.34;98306.28;4989963;28;20205;-68
2021/03/08 01:17:33;;;;;;;11.77;10.80;;;;;;;-3.83;84.80;98310.72;4989217;28;20224;-68
2021/03/08 01:20:00;;;;;;;11.03;9.93;;;;;;;-3.81;85.41;98304.59;4986209;28;20554;-68
2021/03/08 01:22:27;;;;;;;12.17;10.87;;;;;;;-3.84;85.72;98303.88;4994689;28;20204;-69
2021/03/08 01:24:54;;;;;;;14.83;11.10;;;;;;;-3.84;85.85;98306.44;4989675;28;20739;-69
2021/03/08 01:27:21;;;;;;;11.67;10.50;;;;;;;-3.81;85.51;98314.09;4994310;28;20220;-69
2021/03/08 01:29:58;;;;;;;11.60;10.50;;;;;;;-3.87;85.69;98312.63;4989356;28;21114;-69
2021/03/08 01:32:25;;;;;;;10.83;9.73;;;;;;;-3.86;85.73;98316.03;4993325;28;20205;-68
2021/03/08 01:34:52;;;;;;;12.00;10.90;;;;;;;-3.93;85.72;98315.47;4991927;28;20209;-69
2021/03/08 01:37:19;;;;;;;11.83;10.70;;;;;;;-3.98;86.70;98317.41;4987643;28;20244;-68
2021/03/08 01:39:46;;;;;;;12.23;10.93;;;;;;;-4.02;87.71;98306.34;4990535;28;20205;-70
2021/03/08 01:42:13;;;;;;;11.20;10.20;;;;;;;-4.14;88.40;98299.94;4989823;28;20210;-69
2021/03/08 01:44:41;;;;;;;11.30;10.20;;;;;;;-4.15;87.86;98298.25;4993894;28;20197;-69
2021/03/08 01:47:09;;;;;;;12.73;11.43;;;;;;;-4.17;87.67;98292.28;4990880;28;20225;-69
2021/03/08 01:49:36;;;;;;;11.33;10.17;;;;;;;-4.36;89.38;98290.47;4988749;28;20210;-69
2021/03/08 01:52:04;;;;;;;12.37;11.07;;;;;;;-4.45;90.31;98295.19;4990804;28;20213;-69
2021/03/08 01:54:31;;;;;;;11.57;10.47;;;;;;;-4.56;89.46;98299.03;4990468;28;20804;-69
2021/03/08 01:56:58;;;;;;;12.90;11.40;;;;;;;-4.67;89.22;98294.31;4991813;28;20230;-70
2021/03/08 01:59:25;;;;;;;13.57;11.40;;;;;;;-4.77;89.01;98290.38;4996808;28;20588;-69
2021/03/08 02:02:04;;;;;;;13.67;11.20;;;;;;;-4.97;89.65;98291.16;4989451;28;20229;-69
2021/03/08 02:04:32;;;;;;;13.07;11.77;;;;;;;-5.10;91.42;98286.47;4990347;28;20216;-69
2021/03/08 02:06:59;;;;;;;12.00;10.90;;;;;;;-5.12;91.37;98290.00;4993771;28;20622;-67
2021/03/08 02:09:26;;;;;;;12.53;11.33;;;;;;;-5.21;91.87;98287.78;4987166;28;20198;-68
2021/03/08 02:12:05;;;;;;;14.37;12.20;;;;;;;-5.25;92.42;98287.06;4994105;28;20197;-69
2021/03/08 02:14:46;;;;;;;13.17;11.87;;;;;;;-5.17;92.52;98282.44;4990260;28;20254;-68
2021/03/08 02:17:17;;;;;;;12.43;11.23;;;;;;;-5.07;90.38;98282.09;4990886;28;20702;-69
2021/03/08 02:20:16;;;;;;;13.80;11.43;;;;;;;-5.19;91.62;98278.22;4993579;28;20353;-69
2021/03/08 02:23:04;;;;;;;11.80;10.70;;;;;;;-5.23;91.61;98278.34;4988647;28;20215;-69
2021/03/08 02:25:58;;;;;;;11.60;10.17;;;;;;;-5.30;91.75;98279.47;4986090;28;20714;-69
2021/03/08 02:28:40;;;;;;;12.73;11.33;;;;;;;-5.42;92.86;98278.19;4989392;28;20245;-69
2021/03/08 02:31:10;;;;;;;12.93;11.63;;;;;;;-5.48;91.94;98278.41;4986455;28;20209;-69
2021/03/08 02:33:38;;;;;;;14.27;11.80;;;;;;;-5.50;93.38;98280.22;4987802;28;20513;-69
2021/03/08 02:36:08;;;;;;;11.93;10.43;;;;;;;-5.61;94.73;98274.59;4990984;28;20217;-69
2021/03/08 02:38:39;;;;;;;12.60;11.30;;;;;;;-5.65;94.07;98271.28;4987788;28;20555;-68
2021/03/08 02:41:09;;;;;;;13.23;11.87;;;;;;;-5.73;95.06;98273.31;4988366;28;20578;-69
2021/03/08 02:43:40;;;;;;;12.17;11.07;;;;;;;-5.76;95.41;98271.66;4986256;28;20210;-69
2021/03/08 02:46:10;;;;;;;13.10;11.97;;;;;;;-5.78;96.42;98267.47;4992422;28;20204;-69
2021/03/08 02:48:40;;;;;;;13.47;12.03;;;;;;;-5.79;96.79;98268.38;4987352;28;20204;-69
2021/03/08 02:51:09;;;;;;;12.37;11.00;;;;;;;-5.86;97.42;98266.00;4992619;28;20212;-69
2021/03/08 02:53:39;;;;;;;13.73;12.33;;;;;;;-5.86;97.67;98268.59;4991294;28;20319;-68
2021/03/08 02:56:08;;;;;;;13.27;12.07;;;;;;;-5.77;97.41;98271.72;4986481;28;20210;-69
2021/03/08 02:58:36;;;;;;;13.27;11.53;;;;;;;-5.70;96.76;98265.44;4986396;28;20748;-67
2021/03/08 03:01:09;;;;;;;14.03;12.57;;;;;;;-5.91;97.60;98267.88;4984920;28;20753;-69
2021/03/08 03:03:40;;;;;;;15.37;12.63;;;;;;;-5.98;97.15;98275.03;4990094;28;20233;-69
2021/03/08 03:06:07;;;;;;;15.00;12.33;;;;;;;-6.01;99.09;98272.56;4987434;28;20229;-69
2021/03/08 03:08:35;;;;;;;13.60;12.33;;;;;;;-6.06;98.77;98268.47;4989192;28;20564;-69
2021/03/08 03:11:02;;;;;;;13.77;12.37;;;;;;;-6.13;97.65;98263.50;4988633;28;20205;-69
2021/03/08 03:13:29;;;;;;;12.93;11.60;;;;;;;-6.11;98.00;98260.88;4987943;28;20221;-68
2021/03/08 03:15:58;;;;;;;14.03;12.53;;;;;;;-5.97;99.17;98270.69;4983709;28;20445;-69
2021/03/08 03:18:27;;;;;;;13.77;12.37;;;;;;;-5.70;98.18;98278.34;4991366;28;20225;-69
2021/03/08 03:20:56;;;;;;;14.57;13.00;;;;;;;-5.58;96.56;98280.47;4992809;28;20296;-67
2021/03/08 03:23:25;;;;;;;13.50;12.30;;;;;;;-5.47;96.25;98276.69;4990172;28;20209;-69
2021/03/08 03:25:52;;;;;;;14.47;12.93;;;;;;;-5.70;96.03;98276.59;4986189;28;20451;-69
2021/03/08 03:28:22;;;;;;;14.27;12.87;;;;;;;-5.88;97.02;98285.00;4989598;28;20423;-69
2021/03/08 03:30:49;;;;;;;14.10;12.67;;;;;;;-6.03;98.06;98289.00;4990020;28;20212;-69
2021/03/08 03:33:17;;;;;;;14.63;13.13;;;;;;;-6.15;99.06;98287.69;4986082;28;20332;-68
2021/03/08 03:35:45;;;;;;;14.37;12.93;;;;;;;-6.17;100.00;98298.06;4988211;28;20685;-69
2021/03/08 03:38:12;;;;;;;14.27;12.80;;;;;;;-6.14;100.00;98297.94;4988067;28;20240;-69
2021/03/08 03:40:39;;;;;;;14.50;12.87;;;;;;;-6.21;100.00;98300.78;4986357;28;20210;-69
2021/03/08 03:43:06;;;;;;;13.90;12.50;;;;;;;-6.28;100.00;98298.41;4981219;28;20658;-70
2021/03/08 03:45:33;;;;;;;13.73;12.43;;;;;;;-6.21;100.00;98296.47;4985985;28;20219;-70
2021/03/08 03:48:00;;;;;;;14.03;12.53;;;;;;;-6.27;100.00;98300.09;4985643;28;20232;-68
2021/03/08 03:50:27;;;;;;;14.60;13.20;;;;;;;-6.33;100.00;98304.59;4976164;28;20216;-69
2021/03/08 03:52:55;;;;;;;14.17;12.40;;;;;;;-6.36;100.00;98302.13;4985442;28;20354;-70
2021/03/08 03:55:24;;;;;;;13.03;11.70;;;;;;;-6.40;100.00;98302.25;4980851;28;20209;-70
2021/03/08 03:57:58;;;;;;;12.37;11.23;;;;;;;-6.42;100.00;98310.94;4980053;28;20230;-69
2021/03/08 04:00:25;;;;;;;13.37;11.97;;;;;;;-6.46;100.00;98312.75;4982542;28;20205;-71
2021/03/08 04:02:59;;;;;;;15.07;12.43;;;;;;;-6.50;100.00;98316.34;4988174;28;20712;-71
2021/03/08 04:05:27;;;;;;;13.90;12.33;;;;;;;-6.50;99.75;98318.91;4980606;28;20212;-69
2021/03/08 04:07:56;;;;;;;12.77;11.57;;;;;;;-6.47;99.77;98325.69;4988723;28;20582;-71
2021/03/08 04:10:26;;;;;;;14.97;13.23;;;;;;;-6.40;99.90;98319.47;4988264;28;20211;-69
2021/03/08 04:12:55;;;;;;;13.30;11.80;;;;;;;-6.55;100.00;98319.03;4986564;28;20456;-70
2021/03/08 04:15:23;;;;;;;14.07;12.00;;;;;;;-6.55;99.36;98323.38;4986564;28;20210;-71
2021/03/08 04:17:51;;;;;;;13.80;12.30;;;;;;;-6.58;99.35;98328.63;4985234;28;21056;-69
2021/03/08 04:20:19;;;;;;;13.30;11.90;;;;;;;-6.67;99.99;98334.91;4988782;28;20206;-70
2021/03/08 04:22:48;;;;;;;14.30;12.80;;;;;;;-6.71;99.92;98343.63;4987188;28;20213;-70
2021/03/08 04:25:18;;;;;;;14.03;12.53;;;;;;;-6.75;100.00;98348.03;4989519;28;20248;-70
2021/03/08 04:27:45;;;;;;;16.90;15.10;;;;;;;-6.79;100.00;98343.88;4987969;28;20475;-69
2021/03/08 04:30:14;;;;;;;13.07;11.77;;;;;;;-6.76;100.00;98351.50;4987805;28;20209;-70
2021/03/08 04:32:42;;;;;;;13.50;12.30;;;;;;;-6.82;100.00;98346.53;4985047;28;20315;-69
2021/03/08 04:35:10;;;;;;;14.33;12.63;;;;;;;-6.81;100.00;98347.41;4985457;28;21185;-70
2021/03/08 04:37:39;;;;;;;14.67;13.00;;;;;;;-6.80;100.00;98347.34;4988896;28;20247;-69
2021/03/08 04:40:07;;;;;;;14.00;12.50;;;;;;;-6.76;100.00;98348.09;4984783;28;20210;-70
2021/03/08 04:42:35;;;;;;;13.23;12.00;;;;;;;-6.80;100.00;98357.63;4988631;28;20542;-71
2021/03/08 04:45:04;;;;;;;13.43;12.03;;;;;;;-6.81;100.00;98358.53;4990485;28;20457;-68
2021/03/08 04:47:32;;;;;;;14.47;12.93;;;;;;;-6.83;100.00;98355.16;4987264;28;20225;-70
2021/03/08 04:49:59;;;;;;;15.60;13.30;;;;;;;-6.78;100.00;98361.00;4988951;28;20205;-69
2021/03/08 04:52:26;;;;;;;14.50;13.03;;;;;;;-6.87;100.00;98356.16;4985951;28;20213;-70
2021/03/08 04:54:54;;;;;;;13.10;11.80;;;;;;;-6.83;100.00;98353.41;4990721;28;20221;-70
2021/03/08 04:57:22;;;;;;;13.30;12.03;;;;;;;-6.94;100.00;98360.63;4983663;28;20601;-71
2021/03/08 04:59:51;;;;;;;16.13;13.73;;;;;;;-7.00;100.00;98363.38;4988825;28;20217;-70
2021/03/08 05:02:34;;;;;;;14.23;12.50;;;;;;;-7.04;100.00;98356.66;4990820;28;20205;-70
2021/03/08 05:05:04;;;;;;;13.47;12.17;;;;;;;-7.03;100.00;98354.00;4988278;28;20233;-69
2021/03/08 05:07:32;;;;;;;15.20;12.30;;;;;;;-6.87;100.00;98349.25;4985679;28;20240;-70
2021/03/08 05:10:00;;;;;;;13.10;12.00;;;;;;;-6.89;100.00;98350.19;4983478;28;20218;-70
2021/03/08 05:12:29;;;;;;;15.53;13.20;;;;;;;-6.99;100.00;98357.34;4985268;28;20600;-69
2021/03/08 05:14:57;;;;;;;13.80;12.23;;;;;;;-7.04;100.00;98357.47;4980977;28;20609;-68
2021/03/08 05:17:25;;;;;;;13.90;12.50;;;;;;;-6.99;100.00;98360.78;4983604;28;20240;-68
2021/03/08 05:19:52;;;;;;;12.10;10.57;;;;;;;-6.99;100.00;98357.34;4981661;28;20251;-69
2021/03/08 05:22:20;;;;;;;14.37;11.50;;;;;;;-6.94;100.00;98352.91;4993103;28;20856;-68
2021/03/08 05:24:49;;;;;;;13.20;11.87;;;;;;;-7.03;100.00;98358.31;4986466;28;20527;-68
2021/03/08 05:27:17;;;;;;;13.93;12.57;;;;;;;-7.10;100.00;98352.50;4990059;28;20240;-69
2021/03/08 05:29:45;;;;;;;14.00;12.30;;;;;;;-7.13;100.00;98353.44;4989370;28;20205;-70
2021/03/08 05:32:15;;;;;;;13.37;12.07;;;;;;;-7.05;100.00;98355.78;4986317;28;20488;-68
2021/03/08 05:34:46;;;;;;;13.37;12.03;;;;;;;-7.05;100.00;98354.94;4981088;28;20860;-67
2021/03/08 05:37:14;;;;;;;14.27;12.77;;;;;;;-7.14;100.00;98353.47;4983525;28;20692;-70
2021/03/08 05:39:42;;;;;;;14.07;12.30;;;;;;;-7.19;100.00;98353.63;4979587;28;20213;-69
2021/03/08 05:42:10;;;;;;;13.97;12.70;;;;;;;-7.19;100.00;98361.38;4984367;28;20503;-70
2021/03/08 05:44:42;;;;;;;14.63;13.13;;;;;;;-7.13;100.00;98368.91;4987541;28;20529;-71
2021/03/08 05:47:46;;;;;;;14.77;13.30;;;;;;;-7.06;100.00;98363.56;4985870;28;20753;-69
2021/03/08 05:50:40;;;;;;;14.53;13.10;;;;;;;-7.03;100.00;98377.19;4970274;28;20584;-69
2021/03/08 05:53:27;;;;;;;17.17;14.70;;;;;;;-7.06;100.00;98373.88;4947738;28;20653;-69
2021/03/08 05:56:01;;;;;;;15.37;13.87;;;;;;;-7.09;100.00;98377.38;4990510;28;20675;-70
2021/03/08 05:59:06;;;;;;;14.83;13.30;;;;;;;-6.99;100.00;98386.56;4987403;28;20232;-70
2021/03/08 06:02:03;;;;;;;15.30;13.63;;;;;;;-6.89;100.00;98383.69;4957339;28;20217;-69
2021/03/08 06:05:11;;;;;;;16.13;14.17;;;;;;;-6.70;100.00;98384.81;4990667;28;20300;-70
2021/03/08 06:08:12;;;;;;;14.53;13.03;;;;;;;-6.67;99.95;98396.78;4987055;28;20233;-71
2021/03/08 06:10:47;;;;;;;14.60;13.10;;;;;;;-6.55;100.00;98385.25;4989647;28;20215;-70
2021/03/08 06:13:18;;;;;;;17.53;13.10;;;;;;;-6.58;100.00;98396.50;4990940;28;20205;-70
2021/03/08 06:15:50;;;;;;;16.60;12.70;;;;;;;-6.38;98.82;98399.34;4988348;28;20212;-68
2021/03/08 06:18:18;;;;;;;16.50;13.07;;;;;;;-6.48;98.18;98393.63;4993514;28;20729;-70
2021/03/08 06:20:46;;;;;;;15.57;13.97;;;;;;;-6.43;99.20;98400.34;4986332;28;20214;-70
2021/03/08 06:23:15;;;;;;;15.33;12.93;;;;;;;-6.41;98.12;98401.13;4993698;28;20205;-70
2021/03/08 06:25:44;;;;;;;18.67;13.33;;;;;;;-6.45;98.36;98404.72;4987377;28;20452;-69
2021/03/08 06:28:12;;;;;;;13.80;12.33;;;;;;;-6.24;97.33;98415.25;4991175;28;20255;-70
2021/03/08 06:30:39;;;;;;;14.93;12.47;;;;;;;-6.25;98.85;98409.25;4990421;28;20206;-71
2021/03/08 06:33:06;;;;;;;13.90;12.37;;;;;;;-6.21;98.49;98410.00;4986557;28;20210;-71
2021/03/08 06:35:33;;;;;;;14.97;13.43;;;;;;;-6.13;97.00;98420.91;4992053;28;20666;-70
2021/03/08 06:38:01;;;;;;;16.10;12.03;;;;;;;-6.13;97.30;98415.75;4979922;28;20777;-68
2021/03/08 06:40:28;;;;;;;14.87;12.60;;;;;;;-6.08;98.79;98425.91;4988568;28;20201;-70
2021/03/08 06:42:55;;;;;;;16.67;12.63;;;;;;;-5.98;97.39;98431.59;4982444;28;20675;-70
2021/03/08 06:45:22;;;;;;;16.47;12.50;;;;;;;-6.01;99.05;98432.59;4992916;28;20587;-71
2021/03/08 06:47:50;;;;;;;13.33;12.03;;;;;;;-5.91;99.21;98435.66;4994233;28;20229;-70
2021/03/08 06:50:17;;;;;;;14.57;12.70;;;;;;;-5.76;98.68;98443.81;4997161;28;20208;-71
2021/03/08 06:52:44;;;;;;;14.53;13.07;;;;;;;-5.70;98.56;98452.19;4984787;28;20233;-71
2021/03/08 06:55:12;;;;;;;18.17;13.77;;;;;;;-5.40;96.04;98439.13;4986728;28;20627;-70
2021/03/08 06:57:39;;;;;;;21.93;13.63;;;;;;;-5.25;96.82;98455.03;4979253;28;20226;-71
2021/03/08 07:00:08;;;;;;;17.43;13.90;;;;;;;-4.98;94.36;98449.75;4981641;28;20610;-71
2021/03/08 07:02:37;;;;;;;34.80;13.93;;;;;;;-4.93;93.25;98450.41;4984340;28;20407;-71
2021/03/08 07:05:05;;;;;;;22.73;15.10;;;;;;;-4.88;91.79;98452.84;4977882;28;20207;-69
2021/03/08 07:07:47;;;;;;;21.80;14.50;;;;;;;-4.65;93.38;98450.28;4981419;28;20257;-70
2021/03/08 07:10:16;;;;;;;17.67;14.40;;;;;;;-4.58;93.60;98453.44;4989521;28;20266;-71
2021/03/08 07:12:50;;;;;;;19.67;13.83;;;;;;;-4.15;89.74;98447.56;4982977;28;20208;-70
2021/03/08 07:15:18;;;;;;;16.00;14.17;;;;;;;-4.19;88.06;98444.22;4987685;28;20747;-69
2021/03/08 07:17:45;;;;;;;15.57;13.33;;;;;;;-4.10;88.10;98446.44;4983017;28;20233;-71
2021/03/08 07:20:14;;;;;;;15.27;13.43;;;;;;;-4.18;89.54;98442.47;4982223;28;20675;-70
2021/03/08 07:22:45;;;;;;;15.73;14.13;;;;;;;-4.09;89.25;98445.53;4987119;28;20644;-71
2021/03/08 07:25:22;;;;;;;15.77;14.23;;;;;;;-3.80;88.43;98451.31;4985986;28;20212;-69
2021/03/08 07:27:50;;;;;;;15.90;13.73;;;;;;;-3.69;86.70;98457.78;4988347;28;20500;-71
2021/03/08 07:30:19;;;;;;;18.20;14.90;;;;;;;-3.58;88.00;98450.44;4987520;28;20231;-70
2021/03/08 07:32:57;;;;;;;21.17;17.53;;;;;;;-3.38;87.14;98459.13;4986719;28;20907;-69
2021/03/08 07:35:36;;;;;;;18.60;15.73;;;;;;;-3.11;86.66;98459.69;4984930;28;20232;-70
2021/03/08 07:38:04;;;;;;;17.97;14.60;;;;;;;-2.85;84.84;98462.03;4980704;28;20247;-70
2021/03/08 07:40:34;;;;;;;18.93;16.73;;;;;;;-2.82;85.47;98452.38;4986406;28;20205;-71
2021/03/08 07:43:01;;;;;;;17.27;15.57;;;;;;;-2.77;85.62;98468.56;4986280;28;20206;-70
2021/03/08 07:45:44;;;;;;;16.50;14.50;;;;;;;-2.44;83.43;98455.91;4981368;28;20214;-71
2021/03/08 07:48:13;;;;;;;18.87;15.57;;;;;;;-2.54;83.59;98458.91;4985849;28;20232;-70
2021/03/08 07:50:41;;;;;;;18.03;14.70;;;;;;;-2.21;82.69;98460.88;4991498;28;20202;-70
2021/03/08 07:53:23;;;;;;;16.93;15.27;;;;;;;-1.94;80.89;98457.03;4983073;28;20207;-70
2021/03/08 07:55:52;;;;;;;16.73;14.73;;;;;;;-1.64;79.60;98464.25;4989412;28;20210;-70
2021/03/08 07:58:20;;;;;;;24.33;15.27;;;;;;;-2.04;81.80;98457.47;4991229;28;20741;-70
2021/03/08 08:00:47;;;;;;;16.43;14.93;;;;;;;-1.85;81.01;98453.16;4989117;28;20201;-69
2021/03/08 08:03:15;;;;;;;17.37;14.70;;;;;;;-1.62;81.04;98454.63;4986007;28;20205;-71
2021/03/08 08:05:43;;;;;;;14.73;13.30;;;;;;;-1.53;79.99;98453.31;4990062;28;20597;-71
2021/03/08 08:08:12;;;;;;;14.40;13.00;;;;;;;-1.54;80.79;98449.88;4987539;28;20237;-71
2021/03/08 08:10:39;;;;;;;15.70;14.10;;;;;;;-1.45;81.53;98448.59;4991305;28;20237;-71
2021/03/08 08:13:08;;;;;;;15.57;13.87;;;;;;;-1.29;80.59;98448.66;4984469;28;20219;-70
2021/03/08 08:15:36;;;;;;;14.83;13.40;;;;;;;-1.23;79.61;98455.28;4987837;28;20313;-71
2021/03/08 08:18:07;;;;;;;13.00;11.70;;;;;;;-1.14;78.89;98465.22;4989162;28;20228;-70
2021/03/08 08:20:34;;;;;;;13.43;12.23;;;;;;;-1.19;79.72;98473.28;4987262;28;20441;-71
2021/03/08 08:23:03;;;;;;;14.10;12.63;;;;;;;-1.00;79.27;98458.47;4991917;28;20299;-71
2021/03/08 08:25:30;;;;;;;13.83;12.47;;;;;;;-0.81;77.91;98464.38;4985995;28;20685;-71
2021/03/08 08:27:59;;;;;;;14.73;13.10;;;;;;;-0.56;76.55;98454.47;4985882;28;20694;-70
2021/03/08 08:30:28;;;;;;;14.70;13.13;;;;;;;-0.91;78.27;98465.78;4988618;28;20205;-71
2021/03/08 08:32:57;;;;;;;13.93;12.57;;;;;;;-0.67;77.86;98457.63;4987159;28;20205;-69
2021/03/08 08:35:31;;;;;;;14.37;13.07;;;;;;;-0.50;77.03;98461.94;4986967;28;20245;-71
2021/03/08 08:38:20;;;;;;;13.50;12.20;;;;;;;-0.42;77.05;98462.34;4980952;28;20243;-71
2021/03/08 08:41:18;;;;;;;12.00;10.97;;;;;;;0.12;72.16;98459.41;4986164;28;20690;-70
2021/03/08 08:43:45;;;;;;;11.53;10.43;;;;;;;0.15;71.99;98458.38;4987676;28;20235;-71
2021/03/08 08:46:25;;;;;;;12.37;11.17;;;;;;;0.11;72.64;98456.88;4989839;28;20202;-71
2021/03/08 08:49:09;;;;;;;12.47;11.37;;;;;;;-0.07;73.30;98449.16;4984479;28;20599;-70
2021/03/08 08:51:49;;;;;;;12.17;11.03;;;;;;;-0.02;72.18;98452.34;4991071;28;20217;-70
2021/03/08 08:54:54;;;;;;;13.33;11.93;;;;;;;0.18;71.11;98455.59;4985061;28;20600;-71
2021/03/08 08:57:22;;;;;;;13.87;10.93;;;;;;;0.41;69.83;98456.06;4991548;28;20291;-71
2021/03/08 09:00:17;;;;;;;15.07;12.00;;;;;;;0.59;69.82;98459.38;4983226;28;20609;-70
2021/03/08 09:02:45;;;;;;;12.30;11.10;;;;;;;0.52;68.59;98458.88;4986827;28;20212;-71
2021/03/08 09:05:39;;;;;;;11.37;10.37;;;;;;;0.64;68.67;98464.31;4987786;28;20297;-71
2021/03/08 09:08:26;;;;;;;12.27;10.97;;;;;;;0.80;67.13;98462.47;4982951;28;20232;-70
2021/03/08 09:10:53;;;;;;;12.17;10.23;;;;;;;0.82;66.76;98467.63;4984603;28;20206;-70
2021/03/08 09:13:22;;;;;;;11.80;10.30;;;;;;;0.76;67.76;98463.59;4988589;28;20602;-70
2021/03/08 09:15:49;;;;;;;12.63;11.37;;;;;;;1.21;66.82;98460.09;4990068;28;20225;-68
2021/03/08 09:18:35;;;;;;;13.03;11.60;;;;;;;1.73;64.43;98458.66;4989299;28;20312;-70
2021/03/08 09:21:22;;;;;;;12.27;11.00;;;;;;;1.79;64.69;98454.81;4986740;28;20201;-70
2021/03/08 09:23:50;;;;;;;11.97;10.70;;;;;;;1.52;64.50;98458.22;4997379;28;20610;-70
2021/03/08 09:26:17;;;;;;;15.33;11.00;;;;;;;2.04;69.90;98451.47;4985533;28;20205;-69
2021/03/08 09:28:50;;;;;;;11.63;10.20;;;;;;;1.59;63.87;98459.50;4991085;28;20209;-70
2021/03/08 09:31:22;;;;;;;12.13;10.83;;;;;;;1.90;66.76;98457.56;4988773;28;20204;-71
2021/03/08 09:33:51;;;;;;;11.27;10.17;;;;;;;2.09;63.44;98465.09;4988215;28;20762;-71
2021/03/08 09:36:19;;;;;;;14.80;11.70;;;;;;;2.34;62.69;98460.88;4988179;28;20217;-70
2021/03/08 09:38:49;;;;;;;12.50;11.00;;;;;;;2.48;60.37;98466.97;4989874;28;20279;-70
2021/03/08 09:41:16;;;;;;;12.40;10.40;;;;;;;3.02;65.93;98468.63;4996282;28;20213;-70
2021/03/08 09:43:43;;;;;;;11.90;10.80;;;;;;;3.39;60.69;98466.09;4987359;28;20709;-71
2021/03/08 09:46:13;;;;;;;12.07;10.60;;;;;;;3.15;60.85;98464.22;4990609;28;20566;-70
2021/03/08 09:48:42;;;;;;;11.80;10.73;;;;;;;2.86;60.17;98466.22;4997102;28;20208;-70
2021/03/08 09:51:12;;;;;;;13.67;10.43;;;;;;;2.89;58.88;98458.16;4993031;28;20241;-71
2021/03/08 09:53:41;;;;;;;12.23;10.67;;;;;;;2.83;58.34;98461.19;4987918;28;20202;-70
2021/03/08 09:56:09;;;;;;;11.47;10.47;;;;;;;3.06;58.05;98472.72;4992085;28;20650;-69
2021/03/08 09:58:37;;;;;;;12.67;10.23;;;;;;;3.04;58.27;98471.97;4991725;28;20233;-70
2021/03/08 10:01:15;;;;;;;10.00;9.10;;;;;;;2.80;59.20;98479.72;4992836;28;20763;-70
2021/03/08 10:03:47;;;;;;;11.27;10.17;;;;;;;3.11;58.36;98470.63;4993258;28;20563;-70
2021/03/08 10:06:26;;;;;;;11.37;9.93;;;;;;;3.38;56.97;98474.91;4993296;28;20209;-70
2021/03/08 10:08:53;;;;;;;12.20;11.20;;;;;;;3.15;58.16;98469.47;4993918;28;20292;-71
2021/03/08 10:11:22;;;;;;;11.03;10.13;;;;;;;3.17;59.40;98472.81;4993240;28;20209;-70
2021/03/08 10:13:49;;;;;;;11.53;10.30;;;;;;;3.31;57.40;98474.47;4990920;28;20201;-70
2021/03/08 10:16:20;;;;;;;10.37;9.37;;;;;;;3.14;57.84;98477.44;4991877;28;20690;-69
2021/03/08 10:18:47;;;;;;;11.23;10.07;;;;;;;3.57;56.02;98470.97;4992100;28;20369;-71
2021/03/08 10:21:14;;;;;;;10.20;9.00;;;;;;;3.66;63.30;98467.75;4990847;28;20206;-70
2021/03/08 10:23:42;;;;;;;11.63;9.73;;;;;;;3.43;57.10;98471.97;4993252;28;20217;-70
2021/03/08 10:26:11;;;;;;;13.00;11.17;;;;;;;2.98;59.12;98475.03;4991698;28;20210;-71
2021/03/08 10:28:39;;;;;;;10.73;9.53;;;;;;;3.61;57.03;98475.09;4995098;28;20660;-71
2021/03/08 10:31:16;;;;;;;9.13;8.27;;;;;;;3.66;55.77;98474.75;4989033;28;20229;-71
2021/03/08 10:33:44;;;;;;;10.93;9.30;;;;;;;3.71;56.97;98470.88;4993658;28;20205;-70
2021/03/08 10:36:11;;;;;;;10.87;9.77;;;;;;;3.49;56.72;98468.91;4987720;28;20222;-71
2021/03/08 10:38:39;;;;;;;11.17;9.67;;;;;;;4.05;55.91;98471.09;4986671;28;20221;-71
2021/03/08 10:41:07;;;;;;;21.63;16.60;;;;;;;4.16;54.67;98466.84;4993112;28;20206;-71
2021/03/08 10:43:35;;;;;;;10.17;9.17;;;;;;;3.54;56.23;98477.28;4988229;28;20205;-70
2021/03/08 10:46:03;;;;;;;11.37;10.37;;;;;;;3.99;56.50;98471.53;4990235;28;20203;-71
2021/03/08 10:48:30;;;;;;;10.73;9.73;;;;;;;4.37;55.06;98469.66;4992870;28;20244;-71
2021/03/08 10:50:59;;;;;;;9.43;8.53;;;;;;;4.47;54.56;98467.22;4989277;28;20288;-70
2021/03/08 10:53:54;;;;;;;10.50;9.33;;;;;;;4.45;54.16;98474.38;4989531;28;20208;-71
2021/03/08 10:56:22;;;;;;;9.53;8.63;;;;;;;3.84;55.16;98468.22;4992604;28;20672;-70
2021/03/08 10:58:49;;;;;;;10.17;9.13;;;;;;;3.94;56.27;98465.75;4990021;28;20209;-70
2021/03/08 11:01:16;;;;;;;11.20;9.60;;;;;;;4.35;55.58;98469.78;4995377;28;20478;-70
2021/03/08 11:03:43;;;;;;;9.70;8.77;;;;;;;4.10;56.57;98465.47;4988099;28;20312;-69
2021/03/08 11:06:11;;;;;;;10.60;9.53;;;;;;;4.30;56.05;98458.78;4996197;28;20291;-71
2021/03/08 11:08:40;;;;;;;11.23;10.13;;;;;;;4.11;55.98;98455.84;4989132;28;20230;-70
2021/03/08 11:11:16;;;;;;;9.80;8.90;;;;;;;4.29;56.25;98464.97;4991693;28;20309;-70
2021/03/08 11:13:44;;;;;;;9.93;8.93;;;;;;;4.58;55.60;98459.38;4984552;28;20228;-70
2021/03/08 11:16:13;;;;;;;9.33;8.43;;;;;;;4.76;54.39;98461.59;4988565;28;20222;-71
2021/03/08 11:18:40;;;;;;;10.90;8.17;;;;;;;4.58;54.43;98462.00;4988329;28;20657;-71
2021/03/08 11:21:25;;;;;;;8.40;7.70;;;;;;;4.44;54.17;98451.69;4989076;28;20206;-70
2021/03/08 11:23:53;;;;;;;7.87;7.07;;;;;;;4.26;54.71;98459.97;4988946;28;20237;-73
2021/03/08 11:26:21;;;;;;;8.70;8.00;;;;;;;4.72;54.05;98455.72;4987193;28;20206;-70
2021/03/08 11:28:49;;;;;;;8.37;7.63;;;;;;;4.52;54.15;98454.59;4991503;28;20205;-71
2021/03/08 11:31:23;;;;;;;9.07;7.67;;;;;;;4.58;55.37;98458.56;4988370;28;20211;-70
2021/03/08 11:33:51;;;;;;;7.57;6.97;;;;;;;5.33;52.76;98459.88;4991903;28;20298;-71
2021/03/08 11:36:32;;;;;;;7.87;7.17;;;;;;;4.89;53.71;98449.19;4988280;28;20229;-71